GLD1028 SBSN-SBBV
Flight info
| Callsign | GLD1028 |
|---|---|
| Flight time | 1h 21m |
| Altitude | 30000 |
| Route | EDPI2A MUNOP BUVIP KIGOX ABREU |
| Aircraft | B738/M-SDFGIRY/S |
Departure
| Time | 2026-04-22 19:30 |
|---|---|
| Airport | Santarém - Maestro Wilson Fonseca International Airport (SBSN) |
Arrival
| Time | 2026-04-22 20:51 |
|---|---|
| Airport | Atlas Brasil Cantanhede International Airport (SBBV) |
| Time | Latitude | Longitude | Altitude | Speed | Heading |
|---|---|---|---|---|---|
| 2026-04-22 19:10 | -2.42380 | -54.78538 | 205 ft | 0 kts | 144° |
| 2026-04-22 19:15 | -2.42379 | -54.78539 | 205 ft | 1 kts | 143° |
| 2026-04-22 19:15 | -2.42375 | -54.78542 | 205 ft | 1 kts | 143° |
| 2026-04-22 19:15 | -2.42370 | -54.78546 | 209 ft | 1 kts | 144° |
| 2026-04-22 19:16 | -2.42361 | -54.78552 | 206 ft | 2 kts | 144° |
| 2026-04-22 19:16 | -2.42351 | -54.78559 | 205 ft | 2 kts | 152° |
| 2026-04-22 19:16 | -2.42342 | -54.78562 | 215 ft | 0 kts | 221° |
| 2026-04-22 19:19 | -2.42347 | -54.78577 | 205 ft | 6 kts | 261° |
| 2026-04-22 19:20 | -2.42321 | -54.78626 | 216 ft | 9 kts | 313° |
| 2026-04-22 19:20 | -2.42279 | -54.78667 | 205 ft | 8 kts | 316° |
| 2026-04-22 19:20 | -2.42236 | -54.78706 | 205 ft | 8 kts | 318° |
| 2026-04-22 19:20 | -2.42194 | -54.78744 | 206 ft | 8 kts | 318° |
| 2026-04-22 19:21 | -2.42163 | -54.78788 | 208 ft | 8 kts | 288° |
| 2026-04-22 19:21 | -2.42166 | -54.78840 | 207 ft | 7 kts | 259° |
| 2026-04-22 19:21 | -2.42175 | -54.78890 | 210 ft | 7 kts | 259° |
| 2026-04-22 19:21 | -2.42183 | -54.78939 | 207 ft | 7 kts | 261° |
| 2026-04-22 19:22 | -2.42190 | -54.78986 | 215 ft | 7 kts | 261° |
| 2026-04-22 19:22 | -2.42197 | -54.79033 | 209 ft | 7 kts | 261° |
| 2026-04-22 19:22 | -2.42204 | -54.79079 | 215 ft | 7 kts | 261° |
| 2026-04-22 19:22 | -2.42211 | -54.79124 | 208 ft | 6 kts | 261° |
| 2026-04-22 19:23 | -2.42219 | -54.79168 | 214 ft | 7 kts | 258° |
| 2026-04-22 19:23 | -2.42228 | -54.79213 | 205 ft | 7 kts | 258° |
| 2026-04-22 19:23 | -2.42234 | -54.79260 | 204 ft | 7 kts | 262° |
| 2026-04-22 19:23 | -2.42240 | -54.79305 | 204 ft | 7 kts | 262° |
| 2026-04-22 19:24 | -2.42249 | -54.79350 | 209 ft | 7 kts | 259° |
| 2026-04-22 19:24 | -2.42258 | -54.79402 | 205 ft | 10 kts | 262° |
| 2026-04-22 19:24 | -2.42269 | -54.79469 | 206 ft | 10 kts | 260° |
| 2026-04-22 19:24 | -2.42280 | -54.79537 | 207 ft | 10 kts | 261° |
| 2026-04-22 19:25 | -2.42291 | -54.79601 | 214 ft | 9 kts | 261° |
| 2026-04-22 19:25 | -2.42301 | -54.79664 | 205 ft | 9 kts | 260° |
| 2026-04-22 19:25 | -2.42310 | -54.79726 | 204 ft | 9 kts | 262° |
| 2026-04-22 19:25 | -2.42321 | -54.79786 | 213 ft | 9 kts | 261° |
| 2026-04-22 19:26 | -2.42330 | -54.79844 | 205 ft | 8 kts | 261° |
| 2026-04-22 19:26 | -2.42339 | -54.79901 | 208 ft | 8 kts | 261° |
| 2026-04-22 19:26 | -2.42348 | -54.79956 | 213 ft | 8 kts | 261° |
| 2026-04-22 19:26 | -2.42357 | -54.80009 | 207 ft | 8 kts | 261° |
| 2026-04-22 19:27 | -2.42366 | -54.80061 | 207 ft | 7 kts | 261° |
| 2026-04-22 19:27 | -2.42374 | -54.80111 | 206 ft | 7 kts | 261° |
| 2026-04-22 19:27 | -2.42382 | -54.80159 | 205 ft | 7 kts | 261° |
| 2026-04-22 19:27 | -2.42390 | -54.80207 | 214 ft | 7 kts | 261° |
| 2026-04-22 19:28 | -2.42403 | -54.80261 | 205 ft | 8 kts | 242° |
| 2026-04-22 19:28 | -2.42447 | -54.80298 | 207 ft | 8 kts | 237° |
| 2026-04-22 19:28 | -2.42424 | -54.80343 | 204 ft | 8 kts | 344° |
| 2026-04-22 19:28 | -2.42415 | -54.80336 | 207 ft | 0 kts | 62° |
| 2026-04-22 19:29 | -2.42415 | -54.80335 | 207 ft | 2 kts | 64° |
| 2026-04-22 19:29 | -2.42368 | -54.80084 | 206 ft | 75 kts | 80° |
| 2026-04-22 19:29 | -2.42245 | -54.79333 | 204 ft | 142 kts | 80° |
| 2026-04-22 19:29 | -2.42074 | -54.78233 | 588 ft | 163 kts | 79° |
| 2026-04-22 19:30 | -2.41955 | -54.77528 | 1267 ft | 154 kts | 81° |
| 2026-04-22 19:30 | -2.41689 | -54.75974 | 1811 ft | 187 kts | 81° |
| 2026-04-22 19:30 | -2.41470 | -54.74625 | 2017 ft | 205 kts | 81° |
| 2026-04-22 19:30 | -2.41230 | -54.73178 | 2156 ft | 221 kts | 78° |
| 2026-04-22 19:31 | -2.40487 | -54.71765 | 2355 ft | 237 kts | 46° |
| 2026-04-22 19:31 | -2.39035 | -54.70952 | 2630 ft | 252 kts | 14° |
| 2026-04-22 19:31 | -2.37270 | -54.71026 | 3181 ft | 260 kts | 345° |
| 2026-04-22 19:31 | -2.35599 | -54.71719 | 3825 ft | 261 kts | 335° |
| 2026-04-22 19:32 | -2.33981 | -54.72576 | 4419 ft | 265 kts | 333° |
| 2026-04-22 19:32 | -2.32356 | -54.73467 | 5015 ft | 268 kts | 333° |
| 2026-04-22 19:32 | -2.30710 | -54.74363 | 5616 ft | 270 kts | 333° |
| 2026-04-22 19:32 | -2.29047 | -54.75254 | 6215 ft | 273 kts | 333° |
| 2026-04-22 19:33 | -2.27365 | -54.76146 | 6799 ft | 275 kts | 334° |
| 2026-04-22 19:33 | -2.25665 | -54.77040 | 7396 ft | 277 kts | 334° |
| 2026-04-22 19:33 | -2.23948 | -54.77937 | 8001 ft | 280 kts | 334° |
| 2026-04-22 19:33 | -2.22212 | -54.78841 | 8610 ft | 283 kts | 334° |
| 2026-04-22 19:34 | -2.20462 | -54.79750 | 9245 ft | 285 kts | 334° |
| 2026-04-22 19:34 | -2.18695 | -54.80668 | 9873 ft | 288 kts | 334° |
| 2026-04-22 19:34 | -2.16888 | -54.81604 | 10232 ft | 302 kts | 334° |
| 2026-04-22 19:34 | -2.14957 | -54.82604 | 10447 ft | 320 kts | 334° |
| 2026-04-22 19:35 | -2.12951 | -54.83643 | 10932 ft | 326 kts | 334° |
| 2026-04-22 19:35 | -2.10934 | -54.84689 | 11573 ft | 328 kts | 334° |
| 2026-04-22 19:35 | -2.08864 | -54.85690 | 12166 ft | 332 kts | 338° |
| 2026-04-22 19:35 | -2.06712 | -54.86542 | 12788 ft | 335 kts | 341° |
| 2026-04-22 19:36 | -2.04517 | -54.87350 | 13401 ft | 338 kts | 341° |
| 2026-04-22 19:36 | -2.02292 | -54.88161 | 13983 ft | 341 kts | 341° |
| 2026-04-22 19:36 | -2.00056 | -54.88986 | 14546 ft | 345 kts | 340° |
| 2026-04-22 19:36 | -1.97799 | -54.89828 | 15146 ft | 347 kts | 340° |
| 2026-04-22 19:37 | -1.95531 | -54.90682 | 15734 ft | 350 kts | 340° |
| 2026-04-22 19:37 | -1.93261 | -54.91541 | 16259 ft | 354 kts | 340° |
| 2026-04-22 19:37 | -1.90951 | -54.92419 | 16841 ft | 357 kts | 340° |
| 2026-04-22 19:37 | -1.88618 | -54.93306 | 17396 ft | 361 kts | 340° |
| 2026-04-22 19:38 | -1.86258 | -54.94204 | 17962 ft | 363 kts | 340° |
| 2026-04-22 19:38 | -1.83886 | -54.95106 | 18464 ft | 366 kts | 340° |
| 2026-04-22 19:38 | -1.81492 | -54.96017 | 18944 ft | 369 kts | 340° |
| 2026-04-22 19:38 | -1.79087 | -54.96947 | 19450 ft | 371 kts | 336° |
| 2026-04-22 19:39 | -1.76937 | -54.98370 | 19883 ft | 376 kts | 315° |
| 2026-04-22 19:39 | -1.75268 | -55.00389 | 20383 ft | 378 kts | 307° |
| 2026-04-22 19:39 | -1.73697 | -55.02509 | 20847 ft | 381 kts | 306° |
| 2026-04-22 19:39 | -1.72134 | -55.04669 | 21283 ft | 384 kts | 306° |
| 2026-04-22 19:40 | -1.70568 | -55.06841 | 21748 ft | 387 kts | 306° |
| 2026-04-22 19:40 | -1.68981 | -55.09031 | 22209 ft | 389 kts | 306° |
| 2026-04-22 19:40 | -1.67382 | -55.11226 | 22645 ft | 392 kts | 306° |
| 2026-04-22 19:40 | -1.65786 | -55.13403 | 23068 ft | 395 kts | 307° |
| 2026-04-22 19:41 | -1.64151 | -55.15626 | 23488 ft | 398 kts | 307° |
| 2026-04-22 19:41 | -1.62504 | -55.17860 | 23830 ft | 401 kts | 307° |
| 2026-04-22 19:41 | -1.60820 | -55.20140 | 24212 ft | 402 kts | 307° |
| 2026-04-22 19:41 | -1.59175 | -55.22366 | 24561 ft | 405 kts | 307° |
| 2026-04-22 19:42 | -1.57498 | -55.24634 | 24912 ft | 407 kts | 307° |
| 2026-04-22 19:42 | -1.55811 | -55.26916 | 25257 ft | 409 kts | 307° |
| 2026-04-22 19:42 | -1.54114 | -55.29211 | 25597 ft | 412 kts | 307° |
| 2026-04-22 19:42 | -1.52408 | -55.31518 | 25940 ft | 414 kts | 307° |
| 2026-04-22 19:43 | -1.48963 | -55.36177 | 26623 ft | 419 kts | 307° |
| 2026-04-22 19:43 | -1.47227 | -55.38523 | 26955 ft | 421 kts | 307° |
| 2026-04-22 19:43 | -1.45483 | -55.40882 | 27270 ft | 423 kts | 307° |
| 2026-04-22 19:44 | -1.43732 | -55.43250 | 27583 ft | 426 kts | 307° |
| 2026-04-22 19:44 | -1.41962 | -55.45643 | 27886 ft | 428 kts | 307° |
| 2026-04-22 19:44 | -1.40186 | -55.48045 | 28196 ft | 430 kts | 307° |
| 2026-04-22 19:44 | -1.38404 | -55.50454 | 28497 ft | 433 kts | 307° |
| 2026-04-22 19:45 | -1.36609 | -55.52881 | 28811 ft | 435 kts | 307° |
| 2026-04-22 19:45 | -1.34810 | -55.55315 | 29121 ft | 436 kts | 307° |
| 2026-04-22 19:45 | -1.33000 | -55.57761 | 29413 ft | 439 kts | 307° |
| 2026-04-22 19:45 | -1.31205 | -55.60189 | 29692 ft | 441 kts | 307° |
| 2026-04-22 19:46 | -1.29379 | -55.62657 | 29885 ft | 444 kts | 307° |
| 2026-04-22 19:46 | -1.27532 | -55.65153 | 29865 ft | 450 kts | 307° |
| 2026-04-22 19:46 | -1.23767 | -55.70243 | 29885 ft | 461 kts | 307° |
| 2026-04-22 19:47 | -1.19910 | -55.75457 | 29884 ft | 470 kts | 307° |
| 2026-04-22 19:47 | -1.15985 | -55.80763 | 29881 ft | 478 kts | 307° |
| 2026-04-22 19:48 | -1.12025 | -55.86115 | 29860 ft | 479 kts | 307° |
| 2026-04-22 19:48 | -1.08062 | -55.91472 | 29871 ft | 479 kts | 307° |
| 2026-04-22 19:49 | -1.04104 | -55.96822 | 29861 ft | 479 kts | 307° |
| 2026-04-22 19:49 | -1.00140 | -56.02179 | 29871 ft | 478 kts | 307° |
| 2026-04-22 19:50 | -0.96185 | -56.07523 | 29871 ft | 478 kts | 307° |
| 2026-04-22 19:50 | -0.92235 | -56.12861 | 29870 ft | 477 kts | 307° |
| 2026-04-22 19:51 | -0.88317 | -56.18155 | 29871 ft | 477 kts | 307° |
| 2026-04-22 19:51 | -0.84369 | -56.23489 | 29865 ft | 477 kts | 307° |
| 2026-04-22 19:52 | -0.80425 | -56.28819 | 29864 ft | 477 kts | 307° |
| 2026-04-22 19:52 | -0.76474 | -56.34157 | 29881 ft | 477 kts | 307° |
| 2026-04-22 19:53 | -0.72530 | -56.39485 | 29867 ft | 478 kts | 307° |
| 2026-04-22 19:53 | -0.68578 | -56.44824 | 29874 ft | 478 kts | 307° |
| 2026-04-22 19:54 | -0.64645 | -56.50138 | 29871 ft | 478 kts | 307° |
| 2026-04-22 19:54 | -0.60684 | -56.55489 | 29872 ft | 479 kts | 307° |
| 2026-04-22 19:55 | -0.56724 | -56.60838 | 29870 ft | 479 kts | 307° |
| 2026-04-22 19:55 | -0.52757 | -56.66197 | 29883 ft | 480 kts | 307° |
| 2026-04-22 19:56 | -0.48804 | -56.71537 | 29867 ft | 480 kts | 307° |
| 2026-04-22 19:56 | -0.44832 | -56.76902 | 29866 ft | 480 kts | 307° |
| 2026-04-22 19:57 | -0.40860 | -56.82267 | 29867 ft | 480 kts | 307° |
| 2026-04-22 19:57 | -0.36891 | -56.87628 | 29869 ft | 480 kts | 307° |
| 2026-04-22 19:58 | -0.32890 | -56.93032 | 29867 ft | 481 kts | 307° |
| 2026-04-22 19:58 | -0.28941 | -56.98367 | 29875 ft | 481 kts | 307° |
| 2026-04-22 20:00 | -0.15008 | -57.17184 | 29876 ft | 481 kts | 307° |
| 2026-04-22 20:01 | -0.11029 | -57.22559 | 29873 ft | 481 kts | 307° |
| 2026-04-22 20:01 | -0.07720 | -57.27028 | 29876 ft | 481 kts | 307° |
| 2026-04-22 20:02 | -0.03731 | -57.32416 | 29868 ft | 482 kts | 307° |
| 2026-04-22 20:02 | 0.00257 | -57.37802 | 29875 ft | 482 kts | 307° |
| 2026-04-22 20:03 | 0.04249 | -57.43193 | 29870 ft | 483 kts | 307° |
| 2026-04-22 20:03 | 0.08227 | -57.48566 | 29874 ft | 484 kts | 307° |
| 2026-04-22 20:04 | 0.12229 | -57.53972 | 29871 ft | 484 kts | 307° |
| 2026-04-22 20:04 | 0.16237 | -57.59384 | 29863 ft | 485 kts | 307° |
| 2026-04-22 20:05 | 0.20246 | -57.64799 | 29876 ft | 485 kts | 307° |
| 2026-04-22 20:05 | 0.24257 | -57.70217 | 29877 ft | 485 kts | 307° |
| 2026-04-22 20:06 | 0.28261 | -57.75624 | 29869 ft | 484 kts | 307° |
| 2026-04-22 20:06 | 0.32269 | -57.81039 | 29874 ft | 484 kts | 307° |
| 2026-04-22 20:07 | 0.36268 | -57.86440 | 29866 ft | 483 kts | 307° |
| 2026-04-22 20:07 | 0.40241 | -57.91806 | 29875 ft | 483 kts | 307° |
| 2026-04-22 20:08 | 0.44238 | -57.97206 | 29873 ft | 482 kts | 307° |
| 2026-04-22 20:08 | 0.48227 | -58.02594 | 29883 ft | 482 kts | 307° |
| 2026-04-22 20:09 | 0.52214 | -58.07979 | 29877 ft | 482 kts | 307° |
| 2026-04-22 20:09 | 0.56200 | -58.13364 | 29872 ft | 482 kts | 307° |
| 2026-04-22 20:10 | 0.60182 | -58.18743 | 29875 ft | 482 kts | 308° |
| 2026-04-22 20:10 | 0.64174 | -58.24135 | 29878 ft | 482 kts | 308° |
| 2026-04-22 20:11 | 0.68164 | -58.29527 | 29883 ft | 482 kts | 307° |
| 2026-04-22 20:11 | 0.72152 | -58.34913 | 29879 ft | 482 kts | 307° |
| 2026-04-22 20:12 | 0.76112 | -58.40264 | 29884 ft | 482 kts | 307° |
| 2026-04-22 20:12 | 0.80104 | -58.45658 | 29879 ft | 482 kts | 307° |
| 2026-04-22 20:13 | 0.84093 | -58.51048 | 29881 ft | 482 kts | 307° |
| 2026-04-22 20:13 | 0.88077 | -58.56431 | 29884 ft | 481 kts | 307° |
| 2026-04-22 20:14 | 0.92056 | -58.61808 | 29883 ft | 481 kts | 307° |
| 2026-04-22 20:14 | 0.96039 | -58.67190 | 29893 ft | 481 kts | 307° |
| 2026-04-22 20:15 | 1.00014 | -58.72562 | 29900 ft | 482 kts | 307° |
| 2026-04-22 20:15 | 1.03996 | -58.77943 | 29884 ft | 481 kts | 307° |
| 2026-04-22 20:16 | 1.07974 | -58.83321 | 29882 ft | 480 kts | 307° |
| 2026-04-22 20:16 | 1.11938 | -58.88678 | 29884 ft | 479 kts | 307° |
| 2026-04-22 20:17 | 1.15868 | -58.93990 | 29884 ft | 478 kts | 307° |
| 2026-04-22 20:17 | 1.19818 | -58.99330 | 29883 ft | 478 kts | 307° |
| 2026-04-22 20:18 | 1.23776 | -59.04680 | 29876 ft | 478 kts | 307° |
| 2026-04-22 20:18 | 1.27727 | -59.10023 | 29877 ft | 478 kts | 307° |
| 2026-04-22 20:19 | 1.31684 | -59.15373 | 29882 ft | 479 kts | 307° |
| 2026-04-22 20:19 | 1.35644 | -59.20729 | 29877 ft | 479 kts | 307° |
| 2026-04-22 20:20 | 1.39754 | -59.25970 | 29881 ft | 480 kts | 311° |
| 2026-04-22 20:20 | 1.44110 | -59.30981 | 29864 ft | 481 kts | 312° |
| 2026-04-22 20:21 | 1.48518 | -59.36000 | 29866 ft | 480 kts | 312° |
| 2026-04-22 20:21 | 1.52896 | -59.41045 | 29867 ft | 480 kts | 311° |
| 2026-04-22 20:22 | 1.57257 | -59.46110 | 29867 ft | 480 kts | 311° |
| 2026-04-22 20:22 | 1.61604 | -59.51168 | 29855 ft | 479 kts | 311° |
| 2026-04-22 20:23 | 1.65952 | -59.56226 | 29853 ft | 479 kts | 311° |
| 2026-04-22 20:23 | 1.70262 | -59.61238 | 29854 ft | 478 kts | 311° |
| 2026-04-22 20:24 | 1.74588 | -59.66267 | 29855 ft | 477 kts | 311° |
| 2026-04-22 20:24 | 1.78918 | -59.71301 | 29855 ft | 477 kts | 311° |
| 2026-04-22 20:25 | 1.83232 | -59.76318 | 29838 ft | 470 kts | 311° |
| 2026-04-22 20:25 | 1.85328 | -59.78758 | 29832 ft | 454 kts | 311° |
| 2026-04-22 20:25 | 1.87354 | -59.81116 | 29826 ft | 439 kts | 311° |
| 2026-04-22 20:25 | 1.89310 | -59.83392 | 29831 ft | 425 kts | 311° |
| 2026-04-22 20:26 | 1.91216 | -59.85609 | 29767 ft | 416 kts | 311° |
| 2026-04-22 20:26 | 1.93095 | -59.87793 | 29455 ft | 411 kts | 311° |
| 2026-04-22 20:26 | 1.94948 | -59.89948 | 29099 ft | 408 kts | 311° |
| 2026-04-22 20:26 | 1.96789 | -59.92088 | 28739 ft | 404 kts | 311° |
| 2026-04-22 20:27 | 1.98615 | -59.94212 | 28353 ft | 401 kts | 311° |
| 2026-04-22 20:27 | 2.00426 | -59.96318 | 27974 ft | 399 kts | 311° |
| 2026-04-22 20:27 | 2.02233 | -59.98420 | 27610 ft | 396 kts | 311° |
| 2026-04-22 20:27 | 2.04025 | -60.00505 | 27221 ft | 394 kts | 311° |
| 2026-04-22 20:28 | 2.05808 | -60.02579 | 26849 ft | 392 kts | 311° |
| 2026-04-22 20:28 | 2.07583 | -60.04644 | 26477 ft | 391 kts | 311° |
| 2026-04-22 20:28 | 2.09352 | -60.06702 | 26108 ft | 389 kts | 311° |
| 2026-04-22 20:28 | 2.11116 | -60.08754 | 25739 ft | 387 kts | 311° |
| 2026-04-22 20:29 | 2.12867 | -60.10792 | 25351 ft | 387 kts | 311° |
| 2026-04-22 20:29 | 2.14597 | -60.12805 | 25012 ft | 387 kts | 311° |
| 2026-04-22 20:29 | 2.16356 | -60.14853 | 24594 ft | 389 kts | 310° |
| 2026-04-22 20:29 | 2.18118 | -60.16902 | 24235 ft | 388 kts | 310° |
| 2026-04-22 20:30 | 2.19874 | -60.18946 | 23852 ft | 387 kts | 310° |
| 2026-04-22 20:30 | 2.21631 | -60.20991 | 23477 ft | 387 kts | 310° |
| 2026-04-22 20:30 | 2.23205 | -60.23156 | 23178 ft | 382 kts | 298° |
| 2026-04-22 20:30 | 2.24258 | -60.25557 | 22944 ft | 374 kts | 287° |
| 2026-04-22 20:31 | 2.24864 | -60.28065 | 22618 ft | 370 kts | 280° |
| 2026-04-22 20:31 | 2.25335 | -60.30591 | 22238 ft | 369 kts | 279° |
| 2026-04-22 20:31 | 2.25814 | -60.33104 | 21878 ft | 367 kts | 280° |
| 2026-04-22 20:31 | 2.26327 | -60.35594 | 21532 ft | 365 kts | 285° |
| 2026-04-22 20:32 | 2.27419 | -60.37855 | 21159 ft | 363 kts | 308° |
| 2026-04-22 20:32 | 2.29261 | -60.39556 | 20836 ft | 359 kts | 328° |
| 2026-04-22 20:32 | 2.31523 | -60.40557 | 20508 ft | 356 kts | 347° |
| 2026-04-22 20:32 | 2.33942 | -60.41014 | 20185 ft | 353 kts | 352° |
| 2026-04-22 20:33 | 2.36368 | -60.41372 | 19828 ft | 352 kts | 353° |
| 2026-04-22 20:33 | 2.38790 | -60.41706 | 19493 ft | 351 kts | 352° |
| 2026-04-22 20:33 | 2.41204 | -60.42042 | 19196 ft | 349 kts | 352° |
| 2026-04-22 20:33 | 2.43598 | -60.42385 | 18906 ft | 346 kts | 352° |
| 2026-04-22 20:34 | 2.45964 | -60.42732 | 18678 ft | 341 kts | 352° |
| 2026-04-22 20:34 | 2.48281 | -60.43078 | 18568 ft | 332 kts | 351° |
| 2026-04-22 20:34 | 2.50554 | -60.43421 | 18357 ft | 328 kts | 351° |
| 2026-04-22 20:34 | 2.52810 | -60.43764 | 18020 ft | 328 kts | 351° |
| 2026-04-22 20:35 | 2.55068 | -60.44107 | 17668 ft | 327 kts | 351° |
| 2026-04-22 20:35 | 2.57304 | -60.44448 | 17384 ft | 324 kts | 351° |
| 2026-04-22 20:35 | 2.59529 | -60.44788 | 17061 ft | 323 kts | 351° |
| 2026-04-22 20:35 | 2.61749 | -60.45127 | 16751 ft | 322 kts | 351° |
| 2026-04-22 20:36 | 2.63950 | -60.45463 | 16499 ft | 319 kts | 351° |
| 2026-04-22 20:36 | 2.66136 | -60.45797 | 16208 ft | 317 kts | 351° |
| 2026-04-22 20:36 | 2.68310 | -60.46129 | 15879 ft | 316 kts | 350° |
| 2026-04-22 20:36 | 2.70459 | -60.46457 | 15594 ft | 314 kts | 350° |
| 2026-04-22 20:37 | 2.72643 | -60.46790 | 15331 ft | 312 kts | 350° |
| 2026-04-22 20:37 | 2.74749 | -60.47112 | 15061 ft | 310 kts | 350° |
| 2026-04-22 20:37 | 2.76878 | -60.47437 | 14581 ft | 310 kts | 350° |
| 2026-04-22 20:37 | 2.79011 | -60.47763 | 14120 ft | 309 kts | 350° |
| 2026-04-22 20:38 | 2.81133 | -60.48087 | 13648 ft | 308 kts | 350° |
| 2026-04-22 20:38 | 2.83263 | -60.48076 | 13091 ft | 309 kts | 13° |
| 2026-04-22 20:38 | 2.85202 | -60.47190 | 12571 ft | 308 kts | 38° |
| 2026-04-22 20:38 | 2.86658 | -60.45631 | 12101 ft | 306 kts | 54° |
| 2026-04-22 20:39 | 2.87822 | -60.43885 | 11801 ft | 297 kts | 61° |
| 2026-04-22 20:39 | 2.88732 | -60.42061 | 11521 ft | 289 kts | 65° |
| 2026-04-22 20:39 | 2.89552 | -60.40287 | 11359 ft | 271 kts | 65° |
| 2026-04-22 20:39 | 2.90311 | -60.38624 | 11199 ft | 255 kts | 65° |
| 2026-04-22 20:40 | 2.90798 | -60.36986 | 10824 ft | 248 kts | 89° |
| 2026-04-22 20:40 | 2.90445 | -60.35324 | 10326 ft | 246 kts | 121° |
| 2026-04-22 20:40 | 2.89316 | -60.34090 | 9902 ft | 241 kts | 147° |
| 2026-04-22 20:40 | 2.87907 | -60.33200 | 9557 ft | 239 kts | 150° |
| 2026-04-22 20:41 | 2.86470 | -60.32355 | 9240 ft | 239 kts | 152° |
| 2026-04-22 20:41 | 2.85042 | -60.31521 | 8950 ft | 237 kts | 152° |
| 2026-04-22 20:41 | 2.83637 | -60.30708 | 8826 ft | 229 kts | 155° |
| 2026-04-22 20:41 | 2.82127 | -60.30342 | 8451 ft | 224 kts | 187° |
| 2026-04-22 20:42 | 2.80694 | -60.30854 | 8042 ft | 221 kts | 222° |
| 2026-04-22 20:42 | 2.79935 | -60.32151 | 7546 ft | 222 kts | 264° |
| 2026-04-22 20:42 | 2.80261 | -60.33625 | 7207 ft | 220 kts | 303° |
| 2026-04-22 20:42 | 2.81166 | -60.34849 | 6941 ft | 219 kts | 308° |
| 2026-04-22 20:43 | 2.82108 | -60.36049 | 6686 ft | 219 kts | 309° |
| 2026-04-22 20:43 | 2.83044 | -60.37242 | 6455 ft | 218 kts | 308° |
| 2026-04-22 20:43 | 2.83801 | -60.38524 | 6278 ft | 212 kts | 294° |
| 2026-04-22 20:43 | 2.84204 | -60.39914 | 5996 ft | 212 kts | 281° |
| 2026-04-22 20:44 | 2.84347 | -60.41381 | 5670 ft | 212 kts | 273° |
| 2026-04-22 20:44 | 2.84330 | -60.42855 | 5321 ft | 212 kts | 269° |
| 2026-04-22 20:44 | 2.84235 | -60.44326 | 4965 ft | 212 kts | 267° |
| 2026-04-22 20:44 | 2.84102 | -60.45795 | 4638 ft | 212 kts | 266° |
| 2026-04-22 20:45 | 2.84003 | -60.47257 | 4333 ft | 208 kts | 278° |
| 2026-04-22 20:45 | 2.84521 | -60.48569 | 3990 ft | 202 kts | 311° |
| 2026-04-22 20:45 | 2.85600 | -60.49392 | 3826 ft | 189 kts | 334° |
| 2026-04-22 20:45 | 2.86755 | -60.49980 | 3577 ft | 185 kts | 334° |
| 2026-04-22 20:46 | 2.89039 | -60.51152 | 3061 ft | 184 kts | 333° |
| 2026-04-22 20:46 | 2.90176 | -60.51735 | 2824 ft | 183 kts | 333° |
| 2026-04-22 20:46 | 2.91293 | -60.52320 | 2618 ft | 177 kts | 326° |
| 2026-04-22 20:47 | 2.92026 | -60.53261 | 2518 ft | 173 kts | 287° |
| 2026-04-22 20:47 | 2.92034 | -60.54434 | 2437 ft | 176 kts | 251° |
| 2026-04-22 20:47 | 2.91498 | -60.55547 | 2378 ft | 179 kts | 244° |
| 2026-04-22 20:47 | 2.90937 | -60.56658 | 2261 ft | 178 kts | 244° |
| 2026-04-22 20:48 | 2.90376 | -60.57766 | 2164 ft | 180 kts | 244° |
| 2026-04-22 20:48 | 2.89803 | -60.58891 | 2068 ft | 179 kts | 244° |
| 2026-04-22 20:48 | 2.89241 | -60.59992 | 2037 ft | 176 kts | 244° |
| 2026-04-22 20:48 | 2.88693 | -60.61076 | 1859 ft | 179 kts | 244° |
| 2026-04-22 20:49 | 2.88315 | -60.61816 | 1721 ft | 175 kts | 244° |
| 2026-04-22 20:49 | 2.87586 | -60.63241 | 1400 ft | 174 kts | 244° |
| 2026-04-22 20:49 | 2.87030 | -60.64326 | 1159 ft | 173 kts | 244° |
| 2026-04-22 20:49 | 2.86486 | -60.65389 | 939 ft | 170 kts | 244° |
| 2026-04-22 20:50 | 2.85953 | -60.66429 | 684 ft | 166 kts | 244° |
| 2026-04-22 20:50 | 2.85603 | -60.67128 | 454 ft | 168 kts | 244° |
| 2026-04-22 20:50 | 2.85078 | -60.68131 | 293 ft | 153 kts | 244° |
| 2026-04-22 20:50 | 2.84646 | -60.68975 | 280 ft | 115 kts | 243° |
| 2026-04-22 20:51 | 2.84381 | -60.69494 | 279 ft | 53 kts | 243° |
| 2026-04-22 20:51 | 2.84267 | -60.69716 | 278 ft | 32 kts | 243° |
| 2026-04-22 20:51 | 2.84181 | -60.69882 | 283 ft | 23 kts | 243° |
| 2026-04-22 20:51 | 2.84114 | -60.70012 | 279 ft | 16 kts | 242° |
| 2026-04-22 20:52 | 2.84026 | -60.70050 | 279 ft | 15 kts | 162° |
| 2026-04-22 20:52 | 2.83967 | -60.70010 | 279 ft | 10 kts | 124° |
| 2026-04-22 20:52 | 2.83978 | -60.69952 | 281 ft | 9 kts | 67° |
| 2026-04-22 20:52 | 2.84010 | -60.69892 | 278 ft | 10 kts | 63° |
| 2026-04-22 20:53 | 2.84040 | -60.69831 | 278 ft | 10 kts | 63° |
| 2026-04-22 20:53 | 2.84070 | -60.69773 | 278 ft | 9 kts | 63° |
| 2026-04-22 20:53 | 2.84098 | -60.69715 | 278 ft | 9 kts | 63° |
| 2026-04-22 20:53 | 2.84127 | -60.69660 | 278 ft | 9 kts | 62° |
| 2026-04-22 20:54 | 2.84155 | -60.69607 | 279 ft | 9 kts | 63° |
| 2026-04-22 20:54 | 2.84181 | -60.69555 | 278 ft | 8 kts | 63° |
| 2026-04-22 20:54 | 2.84207 | -60.69505 | 278 ft | 8 kts | 61° |
| 2026-04-22 20:54 | 2.84232 | -60.69457 | 278 ft | 8 kts | 64° |
| 2026-04-22 20:55 | 2.84255 | -60.69410 | 278 ft | 7 kts | 62° |
| 2026-04-22 20:55 | 2.84279 | -60.69365 | 278 ft | 7 kts | 62° |
| 2026-04-22 20:55 | 2.84301 | -60.69322 | 278 ft | 7 kts | 63° |
| 2026-04-22 20:55 | 2.84322 | -60.69280 | 281 ft | 7 kts | 63° |
| 2026-04-22 20:56 | 2.84319 | -60.69238 | 278 ft | 7 kts | 138° |
| 2026-04-22 20:56 | 2.84280 | -60.69251 | 280 ft | 7 kts | 233° |
| 2026-04-22 20:56 | 2.84258 | -60.69270 | 279 ft | 2 kts | 186° |
| 2026-04-22 20:56 | 2.84240 | -60.69267 | 279 ft | 3 kts | 169° |
| 2026-04-22 20:57 | 2.84224 | -60.69259 | 279 ft | 3 kts | 153° |
| 2026-04-22 20:57 | 2.84210 | -60.69252 | 310 ft | 0 kts | 154° |
| 2026-04-22 20:57 | 2.84209 | -60.69252 | 311 ft | 1 kts | 154° |
| 2026-04-22 20:57 | 2.84204 | -60.69249 | 327 ft | 0 kts | 154° |